Trigg Furnace, Kentucky
Current Conditions -  °F | °C
As of 3:58 AM on Sunday 23 Nov 2014 (Local Time) from KHOP Reporting Station
Broken Clouds Broken Clouds  
Wind Chill: 55°   Ceiling: 4500
Heat Index: 55°   Visibility: 10mi
Dew Point: 42°   Wind: 6mph
Humidity: 62%   Direction: 140°SE
Pressure: 29.92"   Gusts: NA
Location:  36.8031°N, 87.8159°W
Report Text: KHOP 230958Z AUTO 14005KT 10SM SCT034 BKN045 13/05 A2992 RMK AO2 SLP132 T01250053
Loading
Personal Weather Stations






























Interactive Weather Map New forecast layout! Learn more

10-Day Weather Forecast

Advertisements
Track Severe Weather on mobile